Airport View

Enter AWOS ICAO identifier for current METAR.

ex. KFNL

KBAD 120456Z AUTO 00000KT 10SM CLR 01/00 A3047 RMK AO2 SLPNO T00110004

12 Dec 2019 05:34

Other Area AWOS: KDTN - KSHV - KMNE - K3F3

TAF KBAD 120215Z 1202/1308 08003KT 9999 SKC QNH3034INS BECMG 1214/1215 13005KT 9999 FEW250 QNH3005INS TX13/1222Z TNM01/1213Z